createdAt,value
2018-12-24T00:03:04.786Z,0.10
2018-12-24T00:08:12.240Z,0.00
2018-12-24T00:13:18.685Z,0.08
2018-12-24T00:18:24.915Z,0.05
2018-12-24T00:23:30.454Z,0.10
2018-12-24T00:28:35.201Z,0.00
2018-12-24T00:33:40.087Z,1.47
2018-12-24T00:38:45.516Z,0.00
2018-12-24T00:43:50.416Z,0.00
2018-12-24T00:48:56.790Z,0.10
2018-12-24T00:54:01.649Z,0.10
2018-12-24T00:59:07.861Z,0.05
2018-12-24T01:04:12.809Z,0.20
2018-12-24T01:09:17.760Z,0.10
2018-12-24T01:14:22.790Z,0.00
2018-12-24T01:19:27.756Z,0.00
2018-12-24T01:24:32.596Z,0.10
2018-12-24T01:29:37.438Z,0.28
2018-12-24T01:34:42.456Z,0.00
2018-12-24T01:39:48.741Z,0.10
2018-12-24T01:44:54.699Z,0.10
2018-12-24T01:50:16.805Z,0.00
2018-12-24T01:55:21.753Z,0.10
2018-12-24T02:00:28.104Z,0.05
2018-12-24T02:05:33.907Z,0.10
2018-12-24T02:10:40.163Z,0.00
2018-12-24T02:15:46.590Z,0.10
2018-12-24T02:20:52.661Z,0.00
2018-12-24T02:25:58.942Z,0.20
2018-12-24T02:31:03.775Z,0.00
2018-12-24T02:36:09.709Z,0.00
2018-12-24T02:41:15.684Z,0.00
2018-12-24T02:46:23.778Z,0.60
2018-12-24T02:51:29.154Z,0.00
2018-12-24T02:56:35.039Z,0.00
2018-12-24T03:01:41.474Z,0.00
2018-12-24T03:06:47.699Z,0.10
2018-12-24T03:11:53.390Z,0.03
2018-12-24T03:16:59.575Z,0.00
2018-12-24T03:22:05.500Z,0.10
2018-12-24T03:27:10.289Z,0.00
2018-12-24T03:32:16.628Z,0.00
2018-12-24T03:37:23.057Z,0.00
2018-12-24T03:42:29.043Z,0.00
2018-12-24T03:47:35.435Z,0.20
2018-12-24T03:52:42.256Z,0.00
2018-12-24T03:57:48.176Z,0.05
2018-12-24T04:02:54.299Z,0.00
2018-12-24T04:08:00.308Z,0.10
2018-12-24T04:13:06.662Z,0.00
2018-12-24T04:18:11.506Z,0.20
2018-12-24T04:23:17.728Z,0.10
2018-12-24T04:28:23.948Z,0.00
2018-12-24T04:33:30.031Z,0.08
2018-12-24T04:38:34.876Z,0.10
2018-12-24T04:43:39.833Z,0.10
2018-12-24T04:48:44.712Z,0.20
2018-12-24T04:53:51.018Z,0.13
2018-12-24T04:58:59.218Z,0.33
2018-12-24T05:04:05.492Z,0.00
2018-12-24T05:09:11.295Z,2.53
2018-12-24T05:14:16.822Z,0.00
2018-12-24T05:19:22.901Z,0.00
2018-12-24T05:24:28.982Z,0.30
2018-12-24T05:29:35.138Z,0.00
2018-12-24T05:34:41.204Z,0.20
2018-12-24T05:44:52.237Z,0.00
2018-12-24T05:49:57.039Z,0.00
2018-12-24T05:55:01.903Z,0.13
2018-12-24T06:00:06.770Z,0.00
2018-12-24T06:05:11.715Z,0.00
2018-12-24T06:10:16.555Z,0.00
2018-12-24T06:15:22.383Z,0.20
2018-12-24T06:20:28.042Z,0.00
2018-12-24T06:25:33.684Z,0.00
2018-12-24T06:30:41.373Z,0.00
2018-12-24T06:35:46.492Z,0.03
2018-12-24T06:40:52.153Z,0.00
2018-12-24T06:45:57.327Z,0.00
2018-12-24T06:51:05.318Z,0.00
2018-12-24T06:56:10.186Z,0.00
2018-12-24T07:01:16.263Z,0.00
2018-12-24T07:06:22.272Z,0.00
2018-12-24T07:11:31.144Z,0.00
2018-12-24T07:16:36.442Z,0.10
2018-12-24T07:21:41.203Z,0.00
2018-12-24T07:26:46.148Z,0.20
2018-12-24T07:31:52.225Z,0.60
2018-12-24T07:36:58.281Z,0.00
2018-12-24T07:42:03.208Z,0.00
2018-12-24T07:47:09.001Z,0.00
2018-12-24T07:52:15.004Z,1.77
2018-12-24T07:57:21.464Z,2.80
2018-12-24T08:02:27.731Z,0.07
2018-12-24T08:07:32.953Z,0.40
2018-12-24T08:12:39.111Z,0.50
2018-12-24T08:17:45.242Z,1.20
2018-12-24T08:22:51.803Z,0.83
2018-12-24T08:27:56.566Z,0.40
2018-12-24T08:33:02.410Z,0.43
2018-12-24T08:38:08.346Z,0.20
2018-12-24T08:43:13.664Z,0.13
2018-12-24T08:48:20.626Z,0.03
2018-12-24T08:53:26.678Z,0.17
2018-12-24T08:58:33.130Z,0.20
2018-12-24T09:03:39.376Z,0.20
2018-12-24T09:08:45.622Z,2.77
2018-12-24T09:13:51.174Z,0.20
2018-12-24T09:18:56.261Z,0.40
2018-12-24T09:24:22.053Z,0.93
2018-12-24T09:29:29.682Z,0.20
2018-12-24T09:34:35.788Z,1.23
2018-12-24T09:39:42.008Z,0.73
2018-12-24T09:44:47.194Z,0.60
2018-12-24T09:49:55.915Z,0.30
2018-12-24T09:55:03.339Z,0.40
2018-12-24T10:00:12.042Z,0.67
2018-12-24T10:05:19.644Z,0.60
2018-12-24T10:10:24.673Z,0.60
2018-12-24T10:15:29.712Z,0.50
2018-12-24T10:20:35.681Z,0.50
2018-12-24T10:25:41.366Z,0.57
2018-12-24T10:30:47.088Z,0.40
2018-12-24T10:35:52.365Z,0.60
2018-12-24T10:40:57.762Z,0.93
2018-12-24T10:46:05.804Z,2.77
2018-12-24T10:51:12.301Z,0.53
2018-12-24T10:56:20.415Z,0.93
2018-12-24T11:01:25.689Z,0.50
2018-12-24T11:06:31.922Z,0.33
2018-12-24T11:11:41.437Z,0.50
2018-12-24T11:16:46.195Z,0.50
2018-12-24T11:21:51.277Z,0.40
2018-12-24T11:26:56.805Z,0.50
2018-12-24T11:32:01.687Z,0.73
2018-12-24T11:37:06.630Z,0.47
2018-12-24T11:42:11.823Z,0.40
2018-12-24T11:47:16.680Z,0.30
2018-12-24T11:52:21.512Z,1.10
2018-12-24T11:57:26.415Z,0.50
2018-12-24T12:02:31.361Z,0.42
2018-12-24T12:07:36.112Z,1.27
2018-12-24T12:12:41.037Z,0.60
2018-12-24T12:17:45.869Z,0.70
2018-12-24T12:22:51.718Z,0.47
2018-12-24T12:27:59.725Z,0.30
2018-12-24T12:33:04.639Z,0.30
2018-12-24T12:38:09.388Z,0.30
2018-12-24T12:43:15.482Z,0.50
2018-12-24T12:48:21.332Z,0.30
2018-12-24T12:53:26.418Z,0.85
2018-12-24T12:58:32.887Z,1.20
2018-12-24T13:03:37.758Z,1.55
2018-12-24T13:08:43.493Z,0.70
2018-12-24T13:13:49.741Z,1.17
2018-12-24T13:18:55.705Z,2.07
2018-12-24T13:24:00.430Z,1.17
2018-12-24T13:29:05.345Z,0.70
2018-12-24T13:34:11.117Z,0.63
2018-12-24T13:39:16.061Z,0.90
2018-12-24T13:44:27.996Z,1.63
2018-12-24T13:49:33.404Z,0.77
2018-12-24T13:54:38.487Z,29.30
2018-12-24T13:59:43.247Z,111.50
2018-12-24T14:04:48.136Z,81.00
2018-12-24T14:09:55.283Z,13.37
2018-12-24T14:14:59.961Z,139.20
2018-12-24T14:20:07.340Z,90.57
2018-12-24T14:25:12.390Z,104.93
2018-12-24T14:30:17.907Z,163.63
2018-12-24T14:35:23.972Z,126.23
2018-12-24T14:40:30.023Z,47.40
2018-12-24T14:45:36.126Z,61.53
2018-12-24T14:50:52.959Z,13.43
2018-12-24T14:55:59.099Z,18.03
2018-12-24T15:01:05.205Z,54.20
2018-12-24T15:06:11.190Z,36.97
2018-12-24T15:11:17.644Z,10.10
2018-12-24T15:16:23.602Z,27.60
2018-12-24T15:21:28.428Z,11.87
2018-12-24T15:26:34.656Z,14.00
2018-12-24T15:31:40.593Z,3.70
2018-12-24T15:36:46.654Z,1.17
2018-12-24T15:41:52.625Z,12.13
2018-12-24T15:46:57.563Z,1.33
2018-12-24T15:52:06.436Z,2.03
2018-12-24T15:57:12.554Z,1.00
2018-12-24T16:02:18.137Z,1.43
2018-12-24T16:07:24.825Z,2.67
2018-12-24T16:12:30.802Z,2.13
2018-12-24T16:17:36.082Z,1.60
2018-12-24T16:22:40.952Z,1.43
2018-12-24T16:27:46.388Z,2.93
2018-12-24T16:32:53.924Z,1.20
2018-12-24T16:37:58.824Z,2.83
2018-12-24T16:43:04.418Z,4.13
2018-12-24T16:48:09.544Z,3.63
2018-12-24T16:53:14.566Z,2.40
2018-12-24T16:58:20.600Z,3.07
2018-12-24T17:03:26.372Z,1.07
2018-12-24T17:08:52.143Z,2.67
2018-12-24T17:13:59.190Z,2.37
2018-12-24T17:19:04.558Z,2.60
2018-12-24T17:24:10.509Z,6.57
2018-12-24T17:29:16.682Z,6.73
2018-12-24T17:34:28.262Z,3.40
2018-12-24T17:39:36.617Z,3.50
2018-12-24T17:44:43.055Z,3.47
2018-12-24T17:49:49.422Z,6.00
2018-12-24T17:54:55.376Z,5.47
2018-12-24T18:00:00.721Z,4.23
2018-12-24T18:05:06.980Z,4.07
2018-12-24T18:10:11.839Z,5.10
2018-12-24T18:15:16.978Z,3.13
2018-12-24T18:20:22.079Z,3.27
2018-12-24T18:25:26.931Z,3.83
2018-12-24T18:30:33.053Z,3.10
2018-12-24T18:35:37.991Z,5.63
2018-12-24T18:40:43.941Z,4.43
2018-12-24T18:45:48.944Z,5.43
2018-12-24T18:50:54.327Z,3.40
2018-12-24T18:56:00.767Z,3.83
2018-12-24T19:01:05.997Z,4.57
2018-12-24T19:06:12.124Z,3.67
2018-12-24T19:11:17.177Z,3.80
2018-12-24T19:16:22.223Z,8.13
2018-12-24T19:21:28.616Z,3.80
2018-12-24T19:26:34.153Z,8.17
2018-12-24T19:31:40.776Z,7.67
2018-12-24T19:36:45.755Z,7.73
2018-12-24T19:41:50.817Z,5.57
2018-12-24T19:46:56.894Z,5.53
2018-12-24T19:52:02.424Z,6.77
2018-12-24T19:57:10.310Z,3.03
2018-12-24T20:02:16.932Z,3.87
2018-12-24T20:07:22.344Z,5.43
2018-12-24T20:12:30.455Z,5.10
2018-12-24T20:17:36.829Z,4.50
2018-12-24T20:22:42.638Z,4.30
2018-12-24T20:27:47.972Z,4.87
2018-12-24T20:32:53.869Z,7.03
2018-12-24T20:37:59.100Z,6.90
2018-12-24T20:43:04.684Z,11.93
2018-12-24T20:48:10.862Z,8.27
2018-12-24T20:53:17.301Z,6.57
2018-12-24T20:58:23.042Z,5.20
2018-12-24T21:03:28.036Z,5.47
2018-12-24T21:08:32.879Z,8.57
2018-12-24T21:13:37.814Z,8.50
2018-12-24T21:18:42.679Z,8.70
2018-12-24T21:23:48.606Z,9.87
2018-12-24T21:28:53.500Z,7.47
2018-12-24T21:33:59.405Z,3.73
2018-12-24T21:39:06.232Z,4.97
2018-12-24T21:44:12.488Z,5.13
2018-12-24T21:49:17.397Z,6.27
2018-12-24T21:54:22.710Z,6.90
2018-12-24T21:59:29.397Z,6.27
2018-12-24T22:04:35.614Z,6.27
2018-12-24T22:09:41.668Z,5.77
2018-12-24T22:14:47.795Z,6.17
2018-12-24T22:19:52.730Z,7.10
2018-12-24T22:24:57.768Z,8.40
2018-12-24T22:30:02.703Z,5.43
2018-12-24T22:35:09.076Z,7.17
2018-12-24T22:40:13.894Z,6.40
2018-12-24T22:45:21.051Z,6.67
2018-12-24T22:50:27.694Z,5.47
2018-12-24T22:55:43.808Z,6.87
2018-12-24T23:00:50.419Z,5.83
2018-12-24T23:05:55.641Z,9.60
2018-12-24T23:11:00.448Z,11.93
2018-12-24T23:16:05.312Z,7.00
2018-12-24T23:21:12.371Z,6.27
2018-12-24T23:26:17.200Z,6.50
2018-12-24T23:31:22.351Z,19.50
2018-12-24T23:36:27.386Z,5.57
2018-12-24T23:41:32.308Z,7.90
2018-12-24T23:46:37.066Z,7.30
2018-12-24T23:51:42.090Z,5.87
2018-12-24T23:56:47.085Z,8.33
